createdAt,value
2018-04-26T00:03:16.513Z,95327
2018-04-26T00:08:10.839Z,95340
2018-04-26T00:13:04.570Z,95340
2018-04-26T00:17:58.761Z,95336
2018-04-26T00:22:52.681Z,95329
2018-04-26T00:27:46.373Z,95331
2018-04-26T00:32:40.434Z,95326
2018-04-26T00:37:34.507Z,95295
2018-04-26T00:42:28.298Z,95332
2018-04-26T00:47:22.589Z,95323
2018-04-26T00:52:16.649Z,95319
2018-04-26T00:57:14.637Z,95307
2018-04-26T01:02:07.502Z,95318
2018-04-26T01:07:01.202Z,95322
2018-04-26T01:11:55.582Z,95323
2018-04-26T01:16:49.858Z,95327
2018-04-26T01:21:43.616Z,95316
2018-04-26T01:26:37.561Z,95311
2018-04-26T01:31:31.678Z,95318
2018-04-26T01:36:25.562Z,95319
2018-04-26T01:41:19.528Z,95314
2018-04-26T01:46:13.615Z,95310
2018-04-26T01:51:07.638Z,95305
2018-04-26T01:56:01.984Z,95307
2018-04-26T02:00:56.438Z,95310
2018-04-26T02:05:50.461Z,95313
2018-04-26T02:10:44.293Z,95313
2018-04-26T02:15:38.415Z,95311
2018-04-26T02:20:32.369Z,95318
2018-04-26T02:25:26.390Z,95284
2018-04-26T02:30:20.406Z,95287
2018-04-26T02:35:13.951Z,95319
2018-04-26T02:40:08.311Z,95311
2018-04-26T02:45:02.453Z,95313
2018-04-26T02:49:56.257Z,95315
2018-04-26T02:54:50.814Z,95310
2018-04-26T02:59:44.825Z,95309
2018-04-26T03:04:39.245Z,95315
2018-04-26T03:09:33.102Z,95319
2018-04-26T03:14:27.496Z,95319
2018-04-26T03:19:21.304Z,95330
2018-04-26T03:24:15.143Z,95323
2018-04-26T03:29:09.385Z,95317
2018-04-26T03:34:03.124Z,95331
2018-04-26T03:38:56.888Z,95332
2018-04-26T03:43:50.820Z,95335
2018-04-26T03:48:44.774Z,95334
2018-04-26T03:53:38.748Z,95332
2018-04-26T03:58:33.059Z,95343
2018-04-26T04:03:26.761Z,95337
2018-04-26T04:08:20.593Z,95341
2018-04-26T04:13:15.074Z,95356
2018-04-26T04:18:09.107Z,95349
2018-04-26T04:23:03.709Z,95356
2018-04-26T04:27:57.712Z,95351
2018-04-26T04:32:51.799Z,95357
2018-04-26T04:37:46.256Z,95354
2018-04-26T04:42:39.952Z,95359
2018-04-26T04:47:34.025Z,95353
2018-04-26T04:52:28.290Z,95329
2018-04-26T04:57:22.221Z,95369
2018-04-26T05:02:16.066Z,95363
2018-04-26T05:07:09.682Z,95365
2018-04-26T05:12:03.646Z,95372
2018-04-26T05:16:57.654Z,95328
2018-04-26T05:21:51.571Z,95359
2018-04-26T05:26:46.034Z,95363
2018-04-26T05:31:39.961Z,95356
2018-04-26T05:36:34.187Z,95352
2018-04-26T05:41:27.892Z,95313
2018-04-26T05:46:22.346Z,95341
2018-04-26T05:51:16.302Z,95349
2018-04-26T05:56:10.604Z,95340
2018-04-26T06:01:04.595Z,95312
2018-04-26T06:05:58.801Z,95331
2018-04-26T06:10:52.443Z,95338
2018-04-26T06:15:46.647Z,95337
2018-04-26T06:20:40.508Z,95327
2018-04-26T06:25:34.973Z,95294
2018-04-26T06:30:28.684Z,95317
2018-04-26T06:35:22.730Z,95324
2018-04-26T06:40:16.865Z,95317
2018-04-26T06:45:10.852Z,95293
2018-04-26T06:50:05.487Z,95293
2018-04-26T06:54:59.244Z,95308
2018-04-26T06:59:53.219Z,95300
2018-04-26T07:04:47.537Z,95305
2018-04-26T07:09:42.096Z,95287
2018-04-26T07:14:35.832Z,95298
2018-04-26T07:19:29.894Z,95292
2018-04-26T07:24:23.805Z,95290
2018-04-26T07:29:17.262Z,95292
2018-04-26T07:34:11.497Z,95295
2018-04-26T07:39:05.277Z,95255
2018-04-26T07:43:59.898Z,95300
2018-04-26T07:48:54.345Z,95297
2018-04-26T07:53:48.803Z,95293
2018-04-26T07:58:43.257Z,95277
2018-04-26T08:03:37.662Z,95297
2018-04-26T08:08:31.385Z,95293
2018-04-26T08:13:25.723Z,95294
2018-04-26T08:18:19.728Z,95278
2018-04-26T08:23:13.839Z,95275
2018-04-26T08:28:08.474Z,95269
2018-04-26T08:33:02.349Z,95270
2018-04-26T08:37:57.151Z,95245
2018-04-26T08:42:51.649Z,95241
2018-04-26T08:47:45.537Z,95267
2018-04-26T08:52:40.430Z,95248
2018-04-26T08:57:34.655Z,95251
2018-04-26T09:02:28.944Z,95249
2018-04-26T09:07:23.071Z,95238
2018-04-26T09:12:17.350Z,95235
2018-04-26T09:17:12.193Z,95222
2018-04-26T09:22:06.018Z,95221
2018-04-26T09:27:00.545Z,95216
2018-04-26T09:31:54.563Z,95203
2018-04-26T09:36:49.179Z,95193
2018-04-26T09:41:43.450Z,95153
2018-04-26T09:46:37.457Z,95170
2018-04-26T09:51:31.824Z,95175
2018-04-26T09:56:26.281Z,95162
2018-04-26T10:01:21.132Z,95159
2018-04-26T10:06:15.697Z,95159
2018-04-26T10:11:10.420Z,95156
2018-04-26T10:16:04.446Z,95134
2018-04-26T10:20:59.114Z,95134
2018-04-26T10:25:53.158Z,95098
2018-04-26T10:30:47.633Z,95108
2018-04-26T10:35:42.140Z,95106
2018-04-26T10:40:36.158Z,95093
2018-04-26T10:45:30.234Z,95085
2018-04-26T10:50:24.778Z,95075
2018-04-26T10:55:19.251Z,95077
2018-04-26T11:00:13.388Z,95055
2018-04-26T11:05:07.836Z,95060
2018-04-26T11:10:02.034Z,95060
2018-04-26T11:14:56.029Z,95050
2018-04-26T11:19:50.632Z,95049
2018-04-26T11:24:45.322Z,95048
2018-04-26T11:29:39.914Z,95035
2018-04-26T11:34:33.360Z,95036
2018-04-26T11:39:28.020Z,95028
2018-04-26T11:44:22.389Z,95028
2018-04-26T11:49:16.653Z,95020
2018-04-26T11:54:11.137Z,95014
2018-04-26T11:59:05.285Z,94999
2018-04-26T12:03:58.620Z,95004
2018-04-26T12:08:52.457Z,95008
2018-04-26T12:13:47.229Z,95000
2018-04-26T12:18:41.087Z,94998
2018-04-26T12:23:35.111Z,94994
2018-04-26T12:28:28.878Z,94980
2018-04-26T12:33:23.052Z,94976
2018-04-26T12:38:17.294Z,94978
2018-04-26T12:43:10.928Z,94980
2018-04-26T12:48:05.067Z,94970
2018-04-26T12:52:58.425Z,94968
2018-04-26T12:57:51.888Z,94969
2018-04-26T13:02:45.807Z,94968
2018-04-26T13:07:39.773Z,94971
2018-04-26T13:12:33.641Z,94968
2018-04-26T13:17:27.630Z,94975
2018-04-26T13:22:22.293Z,94964
2018-04-26T13:27:16.977Z,94962
2018-04-26T13:32:10.766Z,94963
2018-04-26T13:37:05.080Z,94966
2018-04-26T13:41:59.150Z,94962
2018-04-26T13:46:52.964Z,94947
2018-04-26T13:51:47.656Z,94953
2018-04-26T13:56:42.771Z,94951
2018-04-26T14:01:37.021Z,94951
2018-04-26T14:06:31.479Z,94946
2018-04-26T14:11:25.281Z,94941
2018-04-26T14:16:19.121Z,94939
2018-04-26T14:21:22.610Z,94951
2018-04-26T14:26:14.271Z,94950
2018-04-26T14:31:08.008Z,94952
2018-04-26T14:36:02.496Z,94950
2018-04-26T14:40:56.671Z,94954
2018-04-26T14:45:50.489Z,94946
2018-04-26T14:50:44.879Z,94953
2018-04-26T14:55:38.785Z,94941
2018-04-26T15:00:32.813Z,94950
2018-04-26T15:05:26.701Z,94936
2018-04-26T15:10:21.179Z,94928
2018-04-26T15:15:14.245Z,94945
2018-04-26T15:20:07.976Z,94946
2018-04-26T15:25:01.590Z,94949
2018-04-26T15:29:55.907Z,94922
2018-04-26T15:34:50.117Z,94917
2018-04-26T15:39:43.711Z,94938
2018-04-26T15:44:38.341Z,94939
2018-04-26T15:49:31.879Z,94959
2018-04-26T15:54:26.448Z,94936
2018-04-26T15:59:20.649Z,94959
2018-04-26T16:04:14.435Z,94952
2018-04-26T16:09:08.358Z,94955
2018-04-26T16:14:03.243Z,94956
2018-04-26T16:18:57.744Z,94932
2018-04-26T16:23:52.222Z,94956
2018-04-26T16:28:46.513Z,94952
2018-04-26T16:33:40.306Z,94966
2018-04-26T16:38:34.426Z,94969
2018-04-26T16:43:28.480Z,94964
2018-04-26T16:48:22.806Z,94971
2018-04-26T16:53:17.154Z,94965
2018-04-26T16:58:10.685Z,94964
2018-04-26T17:03:04.473Z,94976
2018-04-26T17:07:58.899Z,94977
2018-04-26T17:12:53.065Z,94961
2018-04-26T17:17:46.918Z,94993
2018-04-26T17:22:41.039Z,94995
2018-04-26T17:27:35.018Z,95003
2018-04-26T17:32:28.819Z,95014
2018-04-26T17:37:22.875Z,95016
2018-04-26T17:42:17.090Z,95023
2018-04-26T17:47:11.055Z,95027
2018-04-26T17:52:05.060Z,95026
2018-04-26T17:56:59.073Z,95029
2018-04-26T18:01:52.758Z,95030
2018-04-26T18:06:47.208Z,95031
2018-04-26T18:11:41.560Z,95029
2018-04-26T18:16:35.297Z,95029
2018-04-26T18:21:29.443Z,95032
2018-04-26T18:26:23.287Z,95044
2018-04-26T18:31:17.793Z,95049
2018-04-26T18:36:12.219Z,95049
2018-04-26T18:41:06.587Z,95032
2018-04-26T18:46:00.667Z,95053
2018-04-26T18:50:54.723Z,95056
2018-04-26T18:55:48.724Z,95059
2018-04-26T19:00:42.423Z,95064
2018-04-26T19:05:36.235Z,95072
2018-04-26T19:10:30.312Z,95066
2018-04-26T19:15:24.254Z,95081
2018-04-26T19:20:18.428Z,95100
2018-04-26T19:25:12.522Z,95101
2018-04-26T19:30:06.977Z,95105
2018-04-26T19:35:00.639Z,95111
2018-04-26T19:39:54.650Z,95105
2018-04-26T19:44:48.756Z,95110
2018-04-26T19:49:43.000Z,95058
2018-04-26T19:54:37.160Z,95114
2018-04-26T19:59:31.631Z,95089
2018-04-26T20:04:25.875Z,95095
2018-04-26T20:09:20.078Z,95104
2018-04-26T20:14:14.382Z,95099
2018-04-26T20:19:08.449Z,95104
2018-04-26T20:24:02.234Z,95110
2018-04-26T20:28:56.339Z,95119
2018-04-26T20:33:50.030Z,95121
2018-04-26T20:38:44.468Z,95124
2018-04-26T20:43:40.241Z,95124
2018-04-26T20:48:33.464Z,95133
2018-04-26T20:53:27.139Z,95125
2018-04-26T20:58:21.721Z,95130
2018-04-26T21:03:15.343Z,95124
2018-04-26T21:08:09.582Z,95130
2018-04-26T21:13:03.779Z,95115
2018-04-26T21:17:58.304Z,95113
2018-04-26T21:22:52.425Z,95115
2018-04-26T21:27:46.398Z,95092
2018-04-26T21:32:39.900Z,95106
2018-04-26T21:37:34.332Z,95110
2018-04-26T21:42:28.253Z,95119
2018-04-26T21:47:22.171Z,95122
2018-04-26T21:52:16.385Z,95118
2018-04-26T21:57:10.381Z,95116
2018-04-26T22:02:04.467Z,95109
2018-04-26T22:06:58.525Z,95118
2018-04-26T22:11:52.063Z,95117
2018-04-26T22:16:46.055Z,95118
2018-04-26T22:21:39.961Z,95117
2018-04-26T22:26:34.007Z,95124
2018-04-26T22:31:28.137Z,95123
2018-04-26T22:36:22.211Z,95123
2018-04-26T22:41:16.024Z,95132
2018-04-26T22:46:09.977Z,95143
2018-04-26T22:51:03.974Z,95143
2018-04-26T22:55:57.808Z,95142
2018-04-26T23:00:51.839Z,95127
2018-04-26T23:05:45.936Z,95138
2018-04-26T23:10:40.227Z,95135
2018-04-26T23:15:34.628Z,95133
2018-04-26T23:20:28.540Z,95134
2018-04-26T23:25:22.399Z,95124
2018-04-26T23:30:16.968Z,95121
2018-04-26T23:35:11.196Z,95128
2018-04-26T23:40:05.780Z,95124
2018-04-26T23:44:59.651Z,95120
2018-04-26T23:49:54.052Z,95124
2018-04-26T23:54:47.924Z,95119
2018-04-26T23:59:41.891Z,95121
